Overview Statistics Trail Chart Weather Telemetry Raw packets
 

This is the latest recevied weather packets stored in our database for station/object WW5JC. If no packets are shown the sender has not sent any weather packets the latest 10 day(s).

<< 72 73 74 75 76 77 78 >>
Time Temp. Humidity Pressure Rain* Wind** Luminosity Snow
1788112334 35.56° C 47% 1017.9 hPa 0 mm - 673 W/m² -
1788112029 36.11° C 49% 1018.2 hPa 0 mm - 659 W/m² -
1788111726 35.56° C 48% 1018.1 hPa 0 mm - 647 W/m² -
1788111419 36.11° C 49% 1018.2 hPa 0 mm - 642 W/m² -
1788111114 35.56° C 51% 1018.4 hPa 0 mm - 634 W/m² -
1788110818 35.56° C 50% 1018.3 hPa 0 mm - 631 W/m² -
1788110508 35° C 52% 1018.4 hPa 0 mm - 626 W/m² -
1788110208 35° C 52% 1018.4 hPa 0 mm - 626 W/m² -
1788109903 34.44° C 52% 1018.4 hPa 0 mm - 620 W/m² -
1788109597 35° C 51% 1018.4 hPa 0 mm - 614 W/m² -
1788109297 34.44° C 53% 1018.6 hPa 0 mm - 608 W/m² -
1788108991 34.44° C 54% 1018.6 hPa 0 mm - 599 W/m² -
1788108687 34.44° C 55% 1018.7 hPa 0 mm - 593 W/m² -
1788108383 33.89° C 55% 1018.7 hPa 0 mm - 582 W/m² -
1788108079 33.89° C 56% 1018.7 hPa 0 mm - 575 W/m² -
1788107776 33.33° C 58% 1018.9 hPa 0 mm - 564 W/m² -
1788107476 33.89° C 57% 1019 hPa 0 mm - 557 W/m² -
1788107171 33.33° C 57% 1019 hPa 0 mm - 545 W/m² -
1788106867 32.78° C 58% 1019 hPa 0 mm - 534 W/m² -
1788106566 32.78° C 59% 1019 hPa 0 mm - 527 W/m² -
1788106261 32.78° C 59% 1018.9 hPa 0 mm - 518 W/m² -
1788105957 32.78° C 59% 1019 hPa 0 mm - 510 W/m² -
1788105652 32.78° C 58% 1018.9 hPa 0 mm - 500 W/m² -
1788105348 32.22° C 61% 1019.1 hPa 0 mm - 492 W/m² -
1788105044 32.78° C 58% 1019 hPa 0 mm - 473 W/m² -

* Rain latest hour (hover to see other rain measurements)
** Current wind speed in m/s (hover to see current wind gust speed)